createdAt,value
2022-11-17T00:01:42.815Z,25.00
2022-11-17T00:04:11.270Z,24.70
2022-11-17T00:06:39.789Z,24.20
2022-11-17T00:09:12.192Z,23.77
2022-11-17T00:11:54.390Z,25.10
2022-11-17T00:14:36.624Z,27.77
2022-11-17T00:17:08.421Z,30.87
2022-11-17T00:19:54.015Z,29.43
2022-11-17T00:22:22.537Z,28.67
2022-11-17T00:24:51.314Z,30.00
2022-11-17T00:27:19.833Z,29.60
2022-11-17T00:29:48.254Z,31.80
2022-11-17T00:32:36.845Z,31.63
2022-11-17T00:35:06.100Z,33.63
2022-11-17T00:37:38.193Z,31.23
2022-11-17T00:40:07.714Z,29.43
2022-11-17T00:42:36.132Z,30.20
2022-11-17T00:45:04.879Z,31.47
2022-11-17T00:47:37.224Z,29.50
2022-11-17T00:50:06.522Z,30.20
2022-11-17T00:52:34.975Z,31.10
2022-11-17T00:55:03.796Z,29.10
2022-11-17T00:57:32.335Z,29.57
2022-11-17T01:00:00.854Z,28.90
2022-11-17T01:02:29.250Z,29.90
2022-11-17T01:04:59.011Z,29.10
2022-11-17T01:07:27.539Z,29.63
2022-11-17T01:09:56.096Z,29.47
2022-11-17T01:12:24.528Z,30.43
2022-11-17T01:14:52.934Z,28.90
2022-11-17T01:17:21.336Z,29.50
2022-11-17T01:19:50.566Z,30.30
2022-11-17T01:22:20.315Z,28.60
2022-11-17T01:24:48.791Z,29.70
2022-11-17T01:27:17.148Z,29.33
2022-11-17T01:29:45.618Z,29.93
2022-11-17T01:32:14.030Z,28.73
2022-11-17T01:34:42.495Z,27.37
2022-11-17T01:37:30.946Z,29.80
2022-11-17T01:39:59.435Z,28.80
2022-11-17T01:42:28.462Z,27.40
2022-11-17T01:45:06.417Z,28.37
2022-11-17T01:47:45.903Z,24.80
2022-11-17T01:50:26.051Z,24.60
2022-11-17T01:52:59.682Z,25.00
2022-11-17T01:55:33.004Z,24.63
2022-11-17T01:58:07.003Z,24.60
2022-11-17T02:00:35.397Z,25.63
2022-11-17T02:03:07.098Z,24.97
2022-11-17T02:05:44.476Z,24.80
2022-11-17T02:08:15.981Z,23.30
2022-11-17T02:10:51.312Z,23.33
2022-11-17T02:13:21.609Z,26.53
2022-11-17T02:15:51.612Z,24.50
2022-11-17T02:18:20.526Z,27.67
2022-11-17T02:21:01.333Z,26.63
2022-11-17T02:24:06.712Z,24.70
2022-11-17T02:27:04.487Z,25.40
2022-11-17T02:29:38.289Z,24.93
2022-11-17T02:32:10.952Z,24.67
2022-11-17T02:34:46.564Z,24.40
2022-11-17T02:37:22.554Z,24.63
2022-11-17T02:40:00.349Z,24.70
2022-11-17T02:42:52.959Z,24.40
2022-11-17T02:45:26.993Z,23.23
2022-11-17T02:47:57.046Z,22.93
2022-11-17T02:50:28.818Z,24.80
2022-11-17T02:52:57.697Z,24.57
2022-11-17T02:55:27.696Z,25.20
2022-11-17T02:57:56.211Z,26.23
2022-11-17T03:00:27.887Z,24.90
2022-11-17T03:03:22.216Z,25.97
2022-11-17T03:05:59.889Z,25.13
2022-11-17T03:08:36.386Z,24.20
2022-11-17T03:11:07.203Z,25.00
2022-11-17T03:13:47.269Z,25.30
2022-11-17T03:16:27.227Z,25.10
2022-11-17T03:19:05.629Z,24.10
2022-11-17T03:21:38.197Z,22.80
2022-11-17T03:24:12.599Z,24.70
2022-11-17T03:26:44.901Z,26.97
2022-11-17T03:29:16.096Z,25.43
2022-11-17T03:31:49.879Z,24.43
2022-11-17T03:34:21.746Z,25.23
2022-11-17T03:36:53.184Z,21.93
2022-11-17T03:39:26.366Z,23.27
2022-11-17T03:41:59.942Z,22.77
2022-11-17T03:44:31.634Z,22.70
2022-11-17T03:47:05.276Z,22.07
2022-11-17T03:49:41.186Z,20.90
2022-11-17T03:52:09.857Z,23.80
2022-11-17T03:54:38.689Z,22.83
2022-11-17T03:57:13.650Z,22.67
2022-11-17T03:59:51.630Z,22.80
2022-11-17T04:02:22.696Z,23.80
2022-11-17T04:05:06.480Z,22.20
2022-11-17T04:07:36.236Z,22.40
2022-11-17T04:10:06.368Z,23.00
2022-11-17T04:12:52.315Z,22.80
2022-11-17T04:15:47.039Z,21.53
2022-11-17T04:18:17.181Z,21.37
2022-11-17T04:20:46.033Z,20.03
2022-11-17T04:23:16.060Z,21.60
2022-11-17T04:26:03.731Z,21.77
2022-11-17T04:28:39.082Z,20.90
2022-11-17T04:31:15.883Z,20.93
2022-11-17T04:33:47.211Z,21.20
2022-11-17T04:36:17.800Z,21.70
2022-11-17T04:38:47.999Z,23.30
2022-11-17T04:41:35.481Z,21.43
2022-11-17T04:44:05.213Z,22.03
2022-11-17T04:46:34.972Z,21.77
2022-11-17T04:49:05.663Z,21.90
2022-11-17T04:51:35.006Z,19.87
2022-11-17T04:54:04.518Z,20.83
2022-11-17T04:56:32.975Z,21.10
2022-11-17T04:59:01.429Z,21.90
2022-11-17T05:01:30.075Z,19.97
2022-11-17T05:04:00.085Z,20.20
2022-11-17T05:06:32.531Z,18.53
2022-11-17T05:09:02.552Z,20.20
2022-11-17T05:11:49.360Z,19.83
2022-11-17T05:14:19.411Z,18.63
2022-11-17T05:17:09.451Z,19.13
2022-11-17T05:19:40.078Z,20.70
2022-11-17T05:22:25.220Z,20.23
2022-11-17T05:24:53.718Z,19.30
2022-11-17T05:27:23.283Z,18.87
2022-11-17T05:29:51.929Z,22.07
2022-11-17T05:32:20.375Z,22.23
2022-11-17T05:34:49.187Z,23.63
2022-11-17T05:37:18.988Z,26.90
2022-11-17T05:39:47.447Z,25.57
2022-11-17T05:42:15.892Z,27.23
2022-11-17T05:44:44.337Z,25.70
2022-11-17T05:47:12.765Z,24.10
2022-11-17T05:49:41.258Z,23.57
2022-11-17T05:52:09.701Z,22.27
2022-11-17T05:54:39.570Z,23.40
2022-11-17T05:57:13.504Z,22.37
2022-11-17T05:59:46.747Z,19.97
2022-11-17T06:02:18.979Z,20.50
2022-11-17T06:04:49.797Z,20.13
2022-11-17T06:07:19.337Z,19.20
2022-11-17T06:09:49.430Z,18.10
2022-11-17T06:12:18.001Z,18.60
2022-11-17T06:14:46.432Z,18.10
2022-11-17T06:17:23.216Z,16.73
2022-11-17T06:19:56.219Z,17.00
2022-11-17T06:22:26.785Z,18.10
2022-11-17T06:24:57.083Z,17.57
2022-11-17T06:27:26.719Z,18.57
2022-11-17T06:29:57.326Z,17.97
2022-11-17T06:32:25.863Z,16.03
2022-11-17T06:34:56.329Z,19.20
2022-11-17T06:37:25.765Z,17.87
2022-11-17T06:39:54.216Z,19.10
2022-11-17T06:42:44.081Z,19.70
2022-11-17T06:45:13.418Z,23.27
2022-11-17T06:47:42.111Z,22.90
2022-11-17T06:50:11.356Z,20.70
2022-11-17T06:52:39.810Z,20.67
2022-11-17T06:55:09.409Z,19.00
2022-11-17T06:57:39.322Z,18.40
2022-11-17T07:00:09.031Z,18.33
2022-11-17T07:02:37.836Z,19.00
2022-11-17T07:05:07.013Z,19.43
2022-11-17T07:07:35.510Z,19.67
2022-11-17T07:10:04.001Z,20.33
2022-11-17T07:12:32.475Z,22.83
2022-11-17T07:15:02.521Z,22.07
2022-11-17T07:17:31.787Z,24.77
2022-11-17T07:20:00.219Z,23.60
2022-11-17T07:22:28.771Z,24.87
2022-11-17T07:24:57.719Z,26.83
2022-11-17T07:27:26.354Z,26.43
2022-11-17T07:29:54.784Z,26.17
2022-11-17T07:32:25.035Z,24.70
2022-11-17T07:34:53.430Z,21.10
2022-11-17T07:37:21.835Z,17.40
2022-11-17T07:39:50.282Z,17.50
2022-11-17T07:42:18.717Z,17.67
2022-11-17T07:44:54.407Z,19.13
2022-11-17T07:47:24.242Z,17.83
2022-11-17T07:49:52.858Z,21.17
2022-11-17T07:52:21.597Z,24.87
2022-11-17T07:54:50.347Z,23.50
2022-11-17T07:57:20.621Z,23.93
2022-11-17T07:59:49.172Z,23.97
2022-11-17T08:02:17.660Z,22.80
2022-11-17T08:04:47.474Z,22.50
2022-11-17T08:07:16.004Z,23.63
2022-11-17T08:09:44.546Z,20.77
2022-11-17T08:12:13.015Z,19.70
2022-11-17T08:14:41.551Z,18.50
2022-11-17T08:17:10.122Z,17.23
2022-11-17T08:19:38.646Z,18.47
2022-11-17T08:22:08.579Z,18.60
2022-11-17T08:24:37.151Z,20.07
2022-11-17T08:27:05.780Z,18.50
2022-11-17T08:29:34.334Z,19.30
2022-11-17T08:32:02.953Z,18.47
2022-11-17T08:34:31.366Z,18.77
2022-11-17T08:36:59.734Z,19.20
2022-11-17T08:39:29.853Z,19.70
2022-11-17T08:41:58.302Z,19.00
2022-11-17T08:44:26.703Z,18.27
2022-11-17T08:46:55.164Z,20.43
2022-11-17T08:49:23.693Z,21.23
2022-11-17T08:51:52.190Z,20.00
2022-11-17T08:54:20.670Z,20.10
2022-11-17T08:56:50.632Z,19.10
2022-11-17T08:59:19.207Z,20.00
2022-11-17T09:01:47.781Z,19.13
2022-11-17T09:04:16.422Z,20.20
2022-11-17T09:06:44.863Z,19.73
2022-11-17T09:09:13.263Z,18.97
2022-11-17T09:11:41.701Z,18.60
2022-11-17T09:14:11.510Z,21.77
2022-11-17T09:16:39.894Z,22.03
2022-11-17T09:19:08.270Z,21.30
2022-11-17T09:21:36.725Z,21.47
2022-11-17T09:24:05.807Z,20.53
2022-11-17T09:26:34.274Z,21.20
2022-11-17T09:29:03.643Z,23.93
2022-11-17T09:31:33.600Z,24.90
2022-11-17T09:34:05.383Z,24.50
2022-11-17T09:36:35.026Z,23.00
2022-11-17T09:39:03.478Z,23.93
2022-11-17T09:41:36.851Z,24.77
2022-11-17T09:44:16.639Z,23.53
2022-11-17T09:47:01.923Z,25.03
2022-11-17T09:49:39.145Z,25.37
2022-11-17T09:52:14.743Z,27.73
2022-11-17T09:54:48.390Z,30.97
2022-11-17T09:57:23.491Z,31.03
2022-11-17T10:00:03.438Z,27.90
2022-11-17T10:02:35.544Z,25.13
2022-11-17T10:05:04.622Z,26.97
2022-11-17T10:07:35.827Z,26.60
2022-11-17T10:10:06.884Z,28.57
2022-11-17T10:12:43.448Z,29.83
2022-11-17T10:15:24.631Z,30.57
2022-11-17T10:17:54.409Z,31.10
2022-11-17T10:20:23.103Z,31.13
2022-11-17T10:22:53.332Z,27.43
2022-11-17T10:25:24.709Z,27.60
2022-11-17T10:27:55.049Z,26.27
2022-11-17T10:30:25.239Z,27.50
2022-11-17T10:32:56.523Z,27.53
2022-11-17T10:35:27.343Z,29.63
2022-11-17T10:37:58.739Z,29.70
2022-11-17T10:40:28.951Z,29.90
2022-11-17T10:43:21.390Z,29.33
2022-11-17T10:45:51.995Z,29.47
2022-11-17T10:48:30.059Z,29.30
2022-11-17T10:51:00.194Z,27.87
2022-11-17T10:53:32.556Z,30.40
2022-11-17T10:56:07.896Z,30.00
2022-11-17T10:59:08.605Z,30.47
2022-11-17T11:01:38.946Z,30.23
2022-11-17T11:04:27.649Z,30.27
2022-11-17T11:07:09.007Z,29.80
2022-11-17T11:09:41.042Z,29.97
2022-11-17T11:12:15.800Z,29.30
2022-11-17T11:14:49.826Z,28.73
2022-11-17T11:17:20.319Z,33.07
2022-11-17T11:19:53.450Z,30.87
2022-11-17T11:22:38.857Z,30.80
2022-11-17T11:25:25.903Z,29.53
2022-11-17T11:28:06.412Z,30.93
2022-11-17T11:30:39.688Z,31.00
2022-11-17T11:33:21.568Z,30.70
2022-11-17T11:36:05.765Z,30.37
2022-11-17T11:38:48.257Z,29.73
2022-11-17T11:41:29.907Z,30.77
2022-11-17T11:44:26.435Z,30.57
2022-11-17T11:47:01.026Z,30.00
2022-11-17T11:49:35.775Z,31.80
2022-11-17T11:52:11.906Z,31.43
2022-11-17T11:54:50.565Z,30.17
2022-11-17T11:57:25.072Z,28.73
2022-11-17T12:00:03.589Z,31.37
2022-11-17T12:02:42.168Z,30.67
2022-11-17T12:05:20.785Z,30.67
2022-11-17T12:07:55.612Z,32.97
2022-11-17T12:10:32.946Z,33.17
2022-11-17T12:13:02.086Z,33.00
2022-11-17T12:15:36.645Z,30.67
2022-11-17T12:18:14.977Z,33.70
2022-11-17T12:21:01.175Z,32.03
2022-11-17T12:23:59.266Z,32.13
2022-11-17T12:26:30.944Z,30.43
2022-11-17T12:29:25.738Z,32.67
2022-11-17T12:31:55.101Z,32.97
2022-11-17T12:34:29.081Z,33.67
2022-11-17T12:37:23.007Z,34.00
2022-11-17T12:40:00.714Z,35.53
2022-11-17T12:42:31.729Z,34.60
2022-11-17T12:45:07.748Z,33.50
2022-11-17T12:47:38.087Z,32.30
2022-11-17T12:50:53.042Z,32.50
2022-11-17T12:53:53.145Z,34.30
2022-11-17T12:56:37.601Z,34.17
2022-11-17T12:59:41.911Z,34.30
2022-11-17T13:02:25.630Z,34.67
2022-11-17T13:04:58.806Z,34.40
2022-11-17T13:07:28.246Z,35.10
2022-11-17T13:09:58.324Z,33.50
2022-11-17T13:12:28.460Z,34.10
2022-11-17T13:14:59.649Z,32.77
2022-11-17T13:17:29.880Z,33.07
2022-11-17T13:20:03.907Z,31.57
2022-11-17T13:22:35.280Z,32.20
2022-11-17T13:25:20.719Z,30.80
2022-11-17T13:27:54.956Z,31.33
2022-11-17T13:30:29.049Z,33.30
2022-11-17T13:32:59.398Z,33.70
2022-11-17T13:35:29.865Z,31.70
2022-11-17T13:38:07.428Z,34.50
2022-11-17T13:40:38.058Z,33.30
2022-11-17T13:43:08.555Z,32.00
2022-11-17T13:45:38.712Z,30.77
2022-11-17T13:48:07.630Z,30.40
2022-11-17T13:50:38.707Z,31.30
2022-11-17T13:53:25.062Z,30.73
2022-11-17T13:55:54.545Z,31.03
2022-11-17T13:58:39.269Z,28.30
2022-11-17T14:01:13.299Z,28.93
2022-11-17T14:03:43.392Z,29.53
2022-11-17T14:06:14.299Z,30.00
2022-11-17T14:08:44.801Z,28.00
2022-11-17T14:11:21.460Z,28.73
2022-11-17T14:13:52.442Z,27.27
2022-11-17T14:16:28.280Z,26.47
2022-11-17T14:19:03.802Z,28.83
2022-11-17T14:21:33.253Z,27.20
2022-11-17T14:24:08.127Z,28.23
2022-11-17T14:26:41.566Z,28.10
2022-11-17T14:29:12.492Z,29.67
2022-11-17T14:31:42.306Z,26.27
2022-11-17T14:34:11.048Z,27.53
2022-11-17T14:36:40.579Z,27.90
2022-11-17T14:39:16.494Z,29.03
2022-11-17T14:41:46.174Z,31.70
2022-11-17T14:44:14.787Z,31.30
2022-11-17T14:46:44.867Z,31.80
2022-11-17T14:49:13.813Z,32.23
2022-11-17T14:51:42.412Z,35.20
2022-11-17T14:54:10.936Z,36.20
2022-11-17T14:56:39.389Z,37.43
2022-11-17T14:59:09.223Z,39.50
2022-11-17T15:01:38.700Z,40.20
2022-11-17T15:04:34.515Z,40.47
2022-11-17T15:06:57.607Z,39.60
2022-11-17T15:09:26.072Z,42.47
2022-11-17T15:11:54.515Z,41.63
2022-11-17T15:14:23.048Z,44.37
2022-11-17T15:16:51.608Z,42.33
2022-11-17T15:19:21.446Z,42.97
2022-11-17T15:21:49.925Z,43.70
2022-11-17T15:24:18.693Z,43.40
2022-11-17T15:26:47.373Z,43.07
2022-11-17T15:29:16.653Z,42.47
2022-11-17T15:31:45.535Z,43.77
2022-11-17T15:34:19.729Z,47.50
2022-11-17T15:36:50.340Z,44.87
2022-11-17T15:39:19.077Z,46.47
2022-11-17T15:41:48.911Z,45.83
2022-11-17T15:44:18.866Z,46.57
2022-11-17T15:46:48.078Z,43.30
2022-11-17T15:49:17.038Z,48.87
2022-11-17T15:51:45.940Z,48.67
2022-11-17T15:54:20.329Z,48.67
2022-11-17T15:56:49.087Z,51.70
2022-11-17T15:59:17.848Z,51.33
2022-11-17T16:01:46.800Z,49.27
2022-11-17T16:04:16.415Z,54.60
2022-11-17T16:06:47.237Z,50.30
2022-11-17T16:09:17.825Z,52.87
2022-11-17T16:11:46.801Z,55.23
2022-11-17T16:14:15.911Z,56.10
2022-11-17T16:16:46.798Z,56.27
2022-11-17T16:19:15.614Z,55.83
2022-11-17T16:21:44.630Z,55.43
2022-11-17T16:24:13.446Z,55.87
2022-11-17T16:26:44.615Z,59.13
2022-11-17T16:29:13.515Z,58.90
2022-11-17T16:31:42.328Z,57.00
2022-11-17T16:34:14.075Z,59.00
2022-11-17T16:36:44.140Z,53.90
2022-11-17T16:39:16.697Z,53.93
2022-11-17T16:41:47.396Z,49.73
2022-11-17T16:44:17.802Z,49.13
2022-11-17T16:46:48.128Z,50.40
2022-11-17T16:49:18.643Z,48.90
2022-11-17T16:51:51.728Z,48.10
2022-11-17T16:54:21.000Z,50.80
2022-11-17T16:56:50.847Z,52.00
2022-11-17T16:59:19.691Z,52.70
2022-11-17T17:01:48.710Z,52.47
2022-11-17T17:04:17.202Z,51.67
2022-11-17T17:06:46.334Z,47.97
2022-11-17T17:09:16.339Z,47.77
2022-11-17T17:11:45.254Z,47.80
2022-11-17T17:14:16.783Z,46.60
2022-11-17T17:16:45.306Z,49.90
2022-11-17T17:19:15.990Z,49.70
2022-11-17T17:21:45.594Z,49.60
2022-11-17T17:24:14.501Z,53.37
2022-11-17T17:26:43.038Z,52.67
2022-11-17T17:29:12.647Z,55.13
2022-11-17T17:31:43.545Z,48.93
2022-11-17T17:34:13.862Z,54.80
2022-11-17T17:36:42.314Z,51.00
2022-11-17T17:39:15.720Z,51.33
2022-11-17T17:41:45.877Z,60.77
2022-11-17T17:44:16.550Z,105.00
2022-11-17T17:46:47.394Z,107.32
2022-11-17T17:49:16.429Z,72.73
2022-11-17T17:51:45.702Z,73.30
2022-11-17T17:54:19.002Z,115.60
2022-11-17T17:56:48.083Z,76.90
2022-11-17T17:59:16.999Z,63.13
2022-11-17T18:01:48.148Z,62.90
2022-11-17T18:04:17.340Z,61.83
2022-11-17T18:06:48.085Z,56.03
2022-11-17T18:09:19.740Z,61.87
2022-11-17T18:11:50.293Z,58.87
2022-11-17T18:14:22.520Z,60.37
2022-11-17T18:16:53.475Z,64.60
2022-11-17T18:19:21.971Z,59.37
2022-11-17T18:21:50.639Z,69.37
2022-11-17T18:24:19.097Z,79.93
2022-11-17T18:26:47.573Z,59.67
2022-11-17T18:29:18.482Z,61.17
2022-11-17T18:31:48.403Z,56.40
2022-11-17T18:34:21.105Z,59.07
2022-11-17T18:36:49.802Z,63.00
2022-11-17T18:39:18.822Z,63.90
2022-11-17T18:41:47.502Z,67.33
2022-11-17T18:44:18.509Z,61.17
2022-11-17T18:46:47.557Z,60.03
2022-11-17T18:49:17.901Z,62.33
2022-11-17T18:51:46.643Z,61.00
2022-11-17T18:54:15.191Z,58.43
2022-11-17T18:56:45.328Z,58.77
2022-11-17T18:59:15.496Z,58.30
2022-11-17T19:01:44.565Z,59.80
2022-11-17T19:04:14.851Z,56.90
2022-11-17T19:06:45.538Z,52.17
2022-11-17T19:09:14.844Z,52.53
2022-11-17T19:11:43.532Z,52.23
2022-11-17T19:14:12.231Z,53.67
2022-11-17T19:16:44.896Z,55.17
2022-11-17T19:19:15.149Z,53.07
2022-11-17T19:21:45.490Z,50.67
2022-11-17T19:24:15.435Z,48.83
2022-11-17T19:26:44.081Z,49.73
2022-11-17T19:29:17.276Z,56.90
2022-11-17T19:31:46.624Z,51.17
2022-11-17T19:34:15.497Z,54.70
2022-11-17T19:36:45.671Z,56.73
2022-11-17T19:39:15.271Z,51.20
2022-11-17T19:41:45.229Z,76.80
2022-11-17T19:44:14.217Z,55.43
2022-11-17T19:46:43.464Z,50.30
2022-11-17T19:49:13.350Z,54.80
2022-11-17T19:51:42.534Z,52.43
2022-11-17T19:54:14.927Z,51.17
2022-11-17T19:56:43.710Z,52.73
2022-11-17T19:59:15.974Z,51.47
2022-11-17T20:01:45.856Z,56.23
2022-11-17T20:04:14.716Z,51.20
2022-11-17T20:06:43.690Z,52.37
2022-11-17T20:09:15.544Z,54.90
2022-11-17T20:11:44.559Z,54.70
2022-11-17T20:14:14.534Z,54.10
2022-11-17T20:16:43.258Z,52.53
2022-11-17T20:19:13.853Z,53.73
2022-11-17T20:21:42.763Z,53.50
2022-11-17T20:24:13.388Z,52.80
2022-11-17T20:26:44.207Z,52.80
2022-11-17T20:29:12.687Z,50.23
2022-11-17T20:31:41.277Z,50.47
2022-11-17T20:34:13.661Z,54.07
2022-11-17T20:36:42.323Z,50.47
2022-11-17T20:39:11.254Z,52.47
2022-11-17T20:41:41.239Z,55.37
2022-11-17T20:44:24.067Z,51.73
2022-11-17T20:46:53.273Z,50.03
2022-11-17T20:49:21.762Z,56.53
2022-11-17T20:51:50.255Z,50.40
2022-11-17T20:54:20.491Z,51.00
2022-11-17T20:56:50.738Z,49.97
2022-11-17T20:59:20.380Z,52.50
2022-11-17T21:01:50.539Z,51.23
2022-11-17T21:04:19.237Z,54.57
2022-11-17T21:06:48.567Z,54.67
2022-11-17T21:09:18.021Z,53.90
2022-11-17T21:11:58.831Z,48.77
2022-11-17T21:14:30.643Z,46.40
2022-11-17T21:17:00.772Z,48.50
2022-11-17T21:19:32.372Z,48.83
2022-11-17T21:22:03.696Z,52.10
2022-11-17T21:24:32.158Z,48.60
2022-11-17T21:27:00.615Z,50.47
2022-11-17T21:29:30.934Z,50.03
2022-11-17T21:31:59.388Z,52.27
2022-11-17T21:34:27.911Z,50.27
2022-11-17T21:36:56.725Z,47.17
2022-11-17T21:39:25.436Z,49.50
2022-11-17T21:41:54.156Z,47.17
2022-11-17T21:44:22.948Z,46.40
2022-11-17T21:46:52.835Z,45.43
2022-11-17T21:49:21.400Z,46.50
2022-11-17T21:51:49.870Z,45.87
2022-11-17T21:54:18.487Z,44.50
2022-11-17T21:56:46.968Z,45.17
2022-11-17T21:59:17.548Z,45.63
2022-11-17T22:01:46.249Z,45.40
2022-11-17T22:04:16.497Z,47.80
2022-11-17T22:06:45.516Z,45.17
2022-11-17T22:09:14.419Z,46.27
2022-11-17T22:11:43.193Z,47.03
2022-11-17T22:14:13.444Z,46.30
2022-11-17T22:16:43.463Z,48.67
2022-11-17T22:19:14.470Z,46.80
2022-11-17T22:21:45.371Z,43.77
2022-11-17T22:24:14.164Z,44.93
2022-11-17T22:26:43.810Z,43.23
2022-11-17T22:29:14.385Z,40.47
2022-11-17T22:31:44.118Z,35.80
2022-11-17T22:34:13.330Z,37.97
2022-11-17T22:36:41.841Z,36.00
2022-11-17T22:39:11.951Z,37.67
2022-11-17T22:41:40.459Z,34.60
2022-11-17T22:44:08.974Z,34.83
2022-11-17T22:46:37.553Z,29.60
2022-11-17T22:49:05.948Z,25.70
2022-11-17T22:51:51.860Z,25.90
2022-11-17T22:54:21.654Z,23.90
2022-11-17T22:56:50.500Z,23.97
2022-11-17T22:59:19.786Z,22.87
2022-11-17T23:01:48.410Z,23.60
2022-11-17T23:04:17.157Z,23.10
2022-11-17T23:06:45.908Z,23.77
2022-11-17T23:09:14.646Z,23.20
2022-11-17T23:11:44.953Z,22.40
2022-11-17T23:14:14.489Z,25.40
2022-11-17T23:16:43.531Z,29.40
2022-11-17T23:19:14.010Z,31.40
2022-11-17T23:21:43.486Z,30.10
2022-11-17T23:24:13.101Z,31.77
2022-11-17T23:26:42.447Z,36.33
2022-11-17T23:29:12.335Z,37.03
2022-11-17T23:31:41.008Z,40.50
2022-11-17T23:34:10.061Z,41.10
2022-11-17T23:36:38.610Z,43.80
2022-11-17T23:39:07.176Z,45.87
2022-11-17T23:41:35.632Z,45.47
2022-11-17T23:44:04.239Z,44.70
2022-11-17T23:46:34.091Z,44.30
2022-11-17T23:49:02.802Z,45.40
2022-11-17T23:51:31.218Z,46.00
2022-11-17T23:54:00.683Z,44.00
2022-11-17T23:56:32.255Z,44.13
2022-11-17T23:59:00.895Z,43.30
